Time;durP1;ratioP1;P1;durP2;ratioP2;P2;SDS_P1;SDS_P2;PMS_P1;PMS_P2;Temp;Humidity;BMP_temperature;BMP_pressure;BME280_temperature;BME280_humidity;BME280_pressure;Samples;Min_cycle;Max_cycle;Signal;HPM_P1;HPM_P2
2023/06/10 00:02:01;;;;;;;3.35;3.05;;;;;;;16.95;58.19;100995.94;6213460;23;20016;-80
2023/06/10 00:04:28;;;;;;;4.75;2.85;;;;;;;16.85;58.45;100995.28;6213714;23;20446;-79
2023/06/10 00:06:55;;;;;;;4.25;2.92;;;;;;;16.75;59.36;100993.84;6188642;23;20059;-85
2023/06/10 00:09:22;;;;;;;3.58;2.63;;;;;;;16.72;59.89;100991.28;6213146;23;20031;-80
2023/06/10 00:11:49;;;;;;;5.45;2.85;;;;;;;16.69;60.09;100994.03;6212792;23;20050;-78
2023/06/10 00:14:15;;;;;;;7.50;3.38;;;;;;;16.64;60.23;101003.88;6213165;23;20027;-80
2023/06/10 00:16:44;;;;;;;7.97;6.18;;;;;;;16.61;61.22;100998.66;6209425;23;20017;-81
2023/06/10 00:19:13;;;;;;;9.82;7.70;;;;;;;16.56;61.52;100998.81;6188079;23;20043;-81
2023/06/10 00:21:40;;;;;;;6.68;4.45;;;;;;;16.52;61.78;101000.66;6212784;23;20027;-82
2023/06/10 00:24:11;;;;;;;4.30;3.88;;;;;;;16.47;61.94;100999.91;6212879;23;20051;-79
2023/06/10 00:26:41;;;;;;;7.95;3.50;;;;;;;16.39;62.65;101001.91;6189163;23;20019;-79
2023/06/10 00:29:08;;;;;;;4.57;2.92;;;;;;;16.35;62.36;100995.84;6213566;23;20042;-81
2023/06/10 00:31:36;;;;;;;3.72;2.90;;;;;;;16.29;62.99;101001.28;6212889;23;20070;-82
2023/06/10 00:34:03;;;;;;;3.40;2.55;;;;;;;16.24;63.43;100994.41;6209272;23;20024;-79
2023/06/10 00:36:30;;;;;;;5.35;2.67;;;;;;;16.18;64.26;100996.31;6188834;23;20013;-78
2023/06/10 00:38:57;;;;;;;7.35;4.10;;;;;;;16.12;64.91;101004.38;6213007;23;20026;-82
2023/06/10 00:41:26;;;;;;;7.30;2.50;;;;;;;16.05;65.71;101000.19;6212557;23;20087;-78
2023/06/10 00:43:53;;;;;;;4.93;3.05;;;;;;;15.99;66.18;101005.63;6213712;23;20016;-81
2023/06/10 00:46:20;;;;;;;3.75;2.90;;;;;;;15.91;67.24;100995.25;6188325;23;20013;-80
2023/06/10 00:48:47;;;;;;;5.97;3.40;;;;;;;15.87;68.03;101006.81;6212638;23;20391;-89
2023/06/10 00:51:14;;;;;;;4.68;3.17;;;;;;;15.80;68.66;101010.44;6213172;23;20016;-79
2023/06/10 00:53:41;;;;;;;5.60;3.42;;;;;;;15.76;69.38;101014.09;6213312;23;20016;-78
2023/06/10 00:56:08;;;;;;;3.85;3.17;;;;;;;15.67;69.34;101010.78;6188463;23;20020;-83
2023/06/10 00:58:36;;;;;;;5.82;3.03;;;;;;;15.61;70.84;101005.63;6183736;23;20020;-81
2023/06/10 01:01:03;;;;;;;3.83;3.38;;;;;;;15.55;72.65;101001.38;6213514;23;20024;-81
2023/06/10 01:03:32;;;;;;;3.47;2.80;;;;;;;15.46;73.85;101006.88;6212398;23;20031;-79
2023/06/10 01:06:19;;;;;;;4.30;2.85;;;;;;;15.40;74.39;101009.66;6240409;23;20620;-79
2023/06/10 01:08:58;;;;;;;4.75;2.70;;;;;;;15.37;75.01;101012.38;6213523;23;20095;-78
2023/06/10 01:11:36;;;;;;;6.28;3.03;;;;;;;15.30;75.59;101009.00;6215108;22;20019;-80
2023/06/10 01:14:07;;;;;;;5.72;3.00;;;;;;;15.22;75.77;101010.94;6219425;22;20030;-81
2023/06/10 01:16:35;;;;;;;5.53;3.17;;;;;;;15.14;76.42;101010.25;6244322;22;20026;-82
2023/06/10 01:19:02;;;;;;;4.70;3.55;;;;;;;15.10;76.41;101008.59;6240239;22;20022;-82
2023/06/10 01:21:29;;;;;;;4.40;3.20;;;;;;;15.04;77.12;101012.22;6217922;22;20322;-78
2023/06/10 01:23:57;;;;;;;7.00;3.78;;;;;;;15.01;79.16;101015.78;6244405;22;20065;-81
2023/06/10 01:26:33;;;;;;;8.52;3.90;;;;;;;14.98;80.28;101012.34;6217423;22;20300;-80
2023/06/10 01:29:08;;;;;;;5.50;3.72;;;;;;;14.92;81.12;101016.00;6243459;22;20019;-78
2023/06/10 01:31:45;;;;;;;8.30;3.58;;;;;;;14.86;81.26;101010.84;6243539;22;20022;-80
2023/06/10 01:34:18;;;;;;;5.28;4.00;;;;;;;14.81;83.47;101015.34;6244349;22;20023;-78
2023/06/10 01:36:49;;;;;;;5.72;3.55;;;;;;;14.72;84.66;101017.28;6243177;22;20011;-78
2023/06/10 01:39:19;;;;;;;10.18;3.92;;;;;;;14.61;84.92;101019.22;6243452;22;20016;-85
2023/06/10 01:41:45;;;;;;;7.68;4.20;;;;;;;14.49;86.14;101022.97;6238700;22;20019;-78
2023/06/10 01:44:12;;;;;;;6.53;3.60;;;;;;;14.45;88.35;101017.78;6244166;22;20075;-79
2023/06/10 01:46:38;;;;;;;5.72;3.70;;;;;;;14.35;89.25;101020.59;6243594;22;20249;-79
2023/06/10 01:49:05;;;;;;;6.88;3.88;;;;;;;14.31;90.59;101018.03;6244106;22;20081;-81
2023/06/10 01:51:32;;;;;;;8.00;4.00;;;;;;;14.23;91.35;101016.41;6241196;22;20031;-84
2023/06/10 01:53:58;;;;;;;8.55;3.80;;;;;;;14.14;92.41;101019.22;6243972;22;20023;-81
2023/06/10 01:56:24;;;;;;;9.73;3.70;;;;;;;14.07;93.62;101015.81;6243545;22;20015;-79
2023/06/10 01:58:52;;;;;;;6.82;3.85;;;;;;;14.03;94.91;101008.03;6244252;22;20020;-78
2023/06/10 02:01:19;;;;;;;6.93;4.05;;;;;;;13.98;94.90;101010.72;6249952;22;20099;-84
2023/06/10 02:03:45;;;;;;;5.95;3.60;;;;;;;13.91;94.46;101017.00;6245071;22;20436;-80
2023/06/10 02:06:12;;;;;;;6.22;4.15;;;;;;;13.86;96.70;101027.59;6243842;22;20055;-78
2023/06/10 02:08:38;;;;;;;8.80;4.25;;;;;;;13.81;96.79;101024.16;6242703;22;20078;-79
2023/06/10 02:11:05;;;;;;;11.00;4.22;;;;;;;13.75;97.10;101026.88;6244324;22;20034;-78
2023/06/10 02:13:31;;;;;;;7.70;5.05;;;;;;;13.75;98.66;101028.66;6239747;23;20012;-86
2023/06/10 02:15:57;;;;;;;6.03;4.22;;;;;;;13.68;98.49;101036.66;6221227;23;20497;-84
2023/06/10 02:18:24;;;;;;;9.68;4.68;;;;;;;13.67;100.00;101037.53;6247606;23;20020;-84
2023/06/10 02:20:50;;;;;;;7.72;4.38;;;;;;;13.60;100.00;101038.53;6221206;23;20156;-79
2023/06/10 02:23:17;;;;;;;6.35;3.38;;;;;;;13.59;100.00;101042.06;6242768;23;20082;-82
2023/06/10 02:25:43;;;;;;;8.45;4.43;;;;;;;13.51;100.00;101051.84;6247526;23;20017;-81
2023/06/10 02:28:10;;;;;;;6.15;3.83;;;;;;;13.47;100.00;101056.25;6215247;23;20019;-79
2023/06/10 02:30:37;;;;;;;9.70;4.18;;;;;;;13.43;100.00;101048.44;6241516;23;20020;-81
2023/06/10 02:33:05;;;;;;;5.75;3.90;;;;;;;13.39;100.00;101052.88;6239417;23;20020;-79
2023/06/10 02:35:31;;;;;;;7.82;3.72;;;;;;;13.38;100.00;101049.38;6221476;23;20027;-90
2023/06/10 02:37:57;;;;;;;8.65;3.97;;;;;;;13.36;100.00;101044.97;6246201;23;20043;-80
2023/06/10 02:40:24;;;;;;;9.43;3.97;;;;;;;13.32;100.00;101057.28;6216026;23;20027;-80
2023/06/10 02:42:50;;;;;;;8.88;4.68;;;;;;;13.26;100.00;101053.88;6208400;23;20095;-83
2023/06/10 02:45:17;;;;;;;10.10;4.15;;;;;;;13.20;100.00;101047.81;6206055;23;20012;-83
2023/06/10 02:47:43;;;;;;;10.32;4.65;;;;;;;13.17;100.00;101060.16;6215795;23;20067;-79
2023/06/10 02:50:10;;;;;;;6.90;4.22;;;;;;;13.11;100.00;101061.09;6212680;23;20450;-79
2023/06/10 02:52:36;;;;;;;6.63;4.03;;;;;;;13.04;100.00;101057.69;6239691;23;20047;-78
2023/06/10 02:55:03;;;;;;;10.93;5.15;;;;;;;13.04;100.00;101062.06;6241197;23;20027;-78
2023/06/10 02:57:29;;;;;;;8.25;4.95;;;;;;;12.99;100.00;101072.63;6215602;23;20412;-82
2023/06/10 02:59:56;;;;;;;10.00;4.63;;;;;;;12.93;100.00;101066.59;6210805;23;20154;-85
2023/06/10 03:02:28;;;;;;;11.05;4.97;;;;;;;12.87;100.00;101068.41;6214188;23;20020;-81
2023/06/10 03:04:56;;;;;;;6.07;4.00;;;;;;;12.79;100.00;101061.47;6241939;23;20027;-77
2023/06/10 03:07:22;;;;;;;5.90;4.80;;;;;;;12.79;100.00;101072.00;6214116;23;20024;-82
2023/06/10 03:09:50;;;;;;;6.40;4.72;;;;;;;12.78;100.00;101068.50;6214812;23;20020;-78
2023/06/10 03:12:16;;;;;;;10.15;4.28;;;;;;;12.73;100.00;101070.31;6213396;23;20040;-80
2023/06/10 03:14:43;;;;;;;8.40;4.40;;;;;;;12.68;100.00;101080.00;6189450;23;20020;-82
2023/06/10 03:17:09;;;;;;;9.55;4.95;;;;;;;12.64;100.00;101071.28;6214769;23;20436;-77
2023/06/10 03:19:37;;;;;;;7.50;4.95;;;;;;;12.63;100.00;101072.16;6215473;23;20020;-78
2023/06/10 03:22:18;;;;;;;6.97;4.88;;;;;;;12.58;100.00;101076.63;6213327;23;20439;-78
2023/06/10 03:24:46;;;;;;;6.60;4.43;;;;;;;12.54;100.00;101077.50;6209482;23;20095;-84
2023/06/10 03:27:13;;;;;;;6.43;4.82;;;;;;;12.49;100.00;101072.31;6211758;23;20095;-85
2023/06/10 03:29:40;;;;;;;9.77;5.05;;;;;;;12.46;100.00;101076.72;6209822;23;20095;-82
2023/06/10 03:32:10;;;;;;;11.02;5.68;;;;;;;12.45;100.00;101081.13;6209464;23;20459;-78
2023/06/10 03:34:36;;;;;;;10.48;5.13;;;;;;;12.43;100.00;101082.03;6213026;23;20039;-79
2023/06/10 03:37:03;;;;;;;16.42;6.25;;;;;;;12.39;100.00;101076.78;6213030;23;20016;-84
2023/06/10 03:39:29;;;;;;;8.45;5.45;;;;;;;12.38;100.00;101076.81;6186088;23;20098;-80
2023/06/10 03:41:56;;;;;;;9.85;5.82;;;;;;;12.36;100.00;101073.34;6211374;23;20099;-81
2023/06/10 03:44:23;;;;;;;9.07;5.07;;;;;;;12.35;100.00;101084.72;6237827;23;20134;-80
2023/06/10 03:46:49;;;;;;;12.15;5.43;;;;;;;12.33;100.00;101084.75;6235274;22;20019;-85
2023/06/10 03:49:17;;;;;;;9.30;5.78;;;;;;;12.33;100.00;101086.47;6211754;23;20016;-81
2023/06/10 03:51:43;;;;;;;13.07;5.40;;;;;;;12.33;100.00;101081.22;6186806;23;20390;-80
2023/06/10 03:54:10;;;;;;;10.98;6.07;;;;;;;12.33;100.00;101083.84;6211380;23;20016;-82
2023/06/10 03:56:36;;;;;;;7.82;5.65;;;;;;;12.34;100.00;101080.34;6237055;23;20040;-79
2023/06/10 03:59:02;;;;;;;10.07;5.50;;;;;;;12.34;100.00;101083.81;6213326;23;20078;-81
2023/06/10 04:01:29;;;;;;;11.27;6.00;;;;;;;12.39;100.00;101089.06;6208359;23;20067;-80
2023/06/10 04:04:01;;;;;;;8.70;5.55;;;;;;;12.42;100.00;101102.13;6213616;23;20023;-81
2023/06/10 04:06:28;;;;;;;12.20;5.50;;;;;;;12.46;100.00;101103.00;6189739;23;20063;-81
2023/06/10 04:08:58;;;;;;;12.05;5.18;;;;;;;12.54;100.00;101101.16;6188404;23;20359;-80
2023/06/10 04:11:25;;;;;;;9.25;5.05;;;;;;;12.65;100.00;101104.53;6213598;22;20075;-78
2023/06/10 04:13:52;;;;;;;11.80;5.95;;;;;;;12.73;100.00;101099.22;6218783;22;20336;-78
2023/06/10 04:16:18;;;;;;;8.85;5.32;;;;;;;12.84;100.00;101099.09;6243183;22;20027;-79
2023/06/10 04:18:45;;;;;;;9.80;5.80;;;;;;;12.91;100.00;101096.38;6243634;22;20026;-79
2023/06/10 04:21:11;;;;;;;10.70;5.68;;;;;;;12.98;100.00;101097.16;6219219;22;20068;-77
2023/06/10 04:23:38;;;;;;;13.93;5.68;;;;;;;12.99;100.00;101098.06;6221471;22;20020;-79
2023/06/10 04:26:06;;;;;;;10.95;5.50;;;;;;;13.05;100.00;101098.00;6242974;22;20023;-88
2023/06/10 04:28:32;;;;;;;9.45;5.20;;;;;;;13.07;100.00;101096.19;6271495;22;20051;-80
2023/06/10 04:30:59;;;;;;;10.55;6.13;;;;;;;13.07;100.00;101091.81;6240783;22;20015;-83
2023/06/10 04:33:29;;;;;;;9.10;5.70;;;;;;;13.02;100.00;101095.38;6245296;22;20023;-78
2023/06/10 04:35:58;;;;;;;11.05;5.25;;;;;;;13.02;100.00;101092.75;6274208;22;20019;-80
2023/06/10 04:38:25;;;;;;;10.05;5.47;;;;;;;12.97;100.00;101091.94;6246468;22;20022;-78
2023/06/10 04:40:51;;;;;;;9.20;4.63;;;;;;;12.99;100.00;101090.16;6246396;22;20035;-82
2023/06/10 04:43:18;;;;;;;9.38;5.68;;;;;;;13.03;100.00;101091.88;6245370;22;20023;-83
2023/06/10 04:45:45;;;;;;;9.68;5.50;;;;;;;12.99;100.00;101096.28;6219961;22;20015;-79
2023/06/10 04:48:12;;;;;;;10.10;5.70;;;;;;;13.08;100.00;101090.06;6245601;22;20077;-80
2023/06/10 04:50:38;;;;;;;11.57;6.07;;;;;;;13.13;100.00;101096.13;6241700;22;20016;-78
2023/06/10 04:53:05;;;;;;;8.43;5.05;;;;;;;13.19;100.00;101090.81;6244988;22;20020;-78
2023/06/10 04:55:32;;;;;;;7.88;4.90;;;;;;;13.28;100.00;101096.81;6245319;22;20062;-83
2023/06/10 04:57:59;;;;;;;7.53;5.13;;;;;;;13.32;100.00;101094.09;6245744;22;20016;-82
2023/06/10 05:00:25;;;;;;;8.07;5.22;;;;;;;13.32;100.00;101083.59;6245172;22;20018;-78
2023/06/10 05:02:52;;;;;;;10.73;5.35;;;;;;;13.31;100.00;101083.63;6243080;22;20026;-77
2023/06/10 05:05:19;;;;;;;15.30;4.30;;;;;;;13.34;100.00;101091.50;6245745;22;20046;-80
2023/06/10 05:07:45;;;;;;;13.85;5.13;;;;;;;13.45;100.00;101101.88;6270326;22;20065;-78
2023/06/10 05:10:12;;;;;;;5.32;4.65;;;;;;;13.54;100.00;101096.50;6245611;22;20459;-78
2023/06/10 05:12:40;;;;;;;6.53;4.63;;;;;;;13.63;100.00;101100.75;6244476;22;20016;-78
2023/06/10 05:15:08;;;;;;;8.13;4.95;;;;;;;13.51;100.00;101094.78;6245044;22;20069;-80
2023/06/10 05:17:35;;;;;;;10.50;5.68;;;;;;;13.43;100.00;101103.66;6272203;22;20518;-79
2023/06/10 05:20:03;;;;;;;10.75;4.85;;;;;;;13.42;100.00;101097.53;6220159;22;20016;-80
2023/06/10 05:22:30;;;;;;;10.70;5.40;;;;;;;13.45;100.00;101096.63;6245966;22;20031;-78
2023/06/10 05:24:56;;;;;;;9.90;4.60;;;;;;;13.44;100.00;101098.41;6245455;22;20012;-84
2023/06/10 05:27:23;;;;;;;12.57;4.80;;;;;;;13.52;100.00;101095.66;6220198;22;20046;-85
2023/06/10 05:29:51;;;;;;;8.73;5.10;;;;;;;13.58;100.00;101092.91;6245611;22;20012;-77
2023/06/10 05:32:18;;;;;;;9.07;5.60;;;;;;;13.66;100.00;101096.34;6244986;22;20023;-84
2023/06/10 05:34:45;;;;;;;11.23;5.40;;;;;;;13.67;100.00;101095.41;6243510;22;20389;-81
2023/06/10 05:37:11;;;;;;;6.68;4.93;;;;;;;13.64;100.00;101097.25;6241593;22;20087;-80
2023/06/10 05:39:38;;;;;;;7.20;4.22;;;;;;;13.65;100.00;101096.31;6269371;22;20022;-79
2023/06/10 05:42:07;;;;;;;10.27;5.80;;;;;;;13.64;100.00;101091.97;6244581;22;20030;-78
2023/06/10 05:44:34;;;;;;;10.85;5.50;;;;;;;13.67;100.00;101097.19;6244568;22;20035;-80
2023/06/10 05:47:00;;;;;;;11.70;6.43;;;;;;;13.73;100.00;101097.09;6244549;22;20015;-81
2023/06/10 05:49:27;;;;;;;11.05;5.35;;;;;;;13.77;100.00;101088.28;6241336;22;20525;-84
2023/06/10 05:51:55;;;;;;;8.40;5.18;;;;;;;13.88;100.00;101083.72;6269070;22;20118;-78
2023/06/10 05:54:22;;;;;;;12.45;5.80;;;;;;;13.94;100.00;101085.38;6246284;22;20020;-79
2023/06/10 05:56:48;;;;;;;11.57;5.30;;;;;;;13.94;100.00;101081.88;6245103;22;20046;-91
2023/06/10 05:59:15;;;;;;;7.55;5.50;;;;;;;13.97;100.00;101084.44;6245336;22;20439;-82
2023/06/10 06:01:41;;;;;;;10.75;5.43;;;;;;;14.01;100.00;101081.72;6243823;22;20013;-86
2023/06/10 06:04:08;;;;;;;14.02;5.28;;;;;;;14.13;100.00;101088.59;6244937;22;20015;-78
2023/06/10 06:06:36;;;;;;;15.25;5.75;;;;;;;14.15;100.00;101091.19;6272571;22;20087;-77
2023/06/10 06:09:03;;;;;;;7.20;5.05;;;;;;;14.13;100.00;101085.94;6246041;22;20016;-78
2023/06/10 06:11:31;;;;;;;8.45;5.32;;;;;;;14.17;100.00;101078.84;6244134;22;20019;-79
2023/06/10 06:13:58;;;;;;;7.63;4.63;;;;;;;14.25;100.00;101074.34;6220438;22;20016;-79
2023/06/10 06:16:24;;;;;;;11.45;6.05;;;;;;;14.32;100.00;101081.22;6245754;22;20012;-78
2023/06/10 06:18:54;;;;;;;15.15;6.03;;;;;;;14.34;100.00;101076.81;6245196;22;20015;-78
2023/06/10 06:21:20;;;;;;;8.50;5.57;;;;;;;14.43;100.00;101080.16;6245136;22;20022;-84
2023/06/10 06:23:47;;;;;;;14.02;5.80;;;;;;;14.52;99.92;101090.53;6245885;22;20011;-85
2023/06/10 06:26:13;;;;;;;9.45;5.80;;;;;;;14.51;99.87;101097.56;6245654;22;20020;-80
2023/06/10 06:28:40;;;;;;;9.82;4.93;;;;;;;14.62;99.81;101099.13;6219720;22;20011;-80
2023/06/10 06:31:06;;;;;;;6.90;4.70;;;;;;;14.69;98.88;101101.66;6244973;22;20042;-79
2023/06/10 06:33:33;;;;;;;9.00;5.68;;;;;;;14.77;98.44;101098.00;6245446;22;20119;-78
2023/06/10 06:36:00;;;;;;;12.95;5.28;;;;;;;14.77;98.24;101098.88;6245395;22;20015;-80
2023/06/10 06:38:26;;;;;;;12.80;4.50;;;;;;;14.85;97.95;101096.09;6245502;22;20107;-82
2023/06/10 06:40:53;;;;;;;11.15;5.30;;;;;;;14.87;97.55;101095.19;6245578;22;20107;-87
2023/06/10 06:43:20;;;;;;;12.93;5.75;;;;;;;14.93;97.43;101101.19;6244723;22;20606;-78
2023/06/10 06:45:47;;;;;;;8.27;4.65;;;;;;;14.98;97.34;101092.31;6246198;22;20016;-87
2023/06/10 06:48:13;;;;;;;11.23;4.65;;;;;;;15.08;96.72;101090.34;6246592;22;20085;-81
2023/06/10 06:50:41;;;;;;;9.57;5.40;;;;;;;15.18;96.45;101093.66;6271390;22;20011;-88
2023/06/10 06:53:08;;;;;;;11.32;5.13;;;;;;;15.26;95.60;101091.72;6246256;22;20036;-82
2023/06/10 06:55:34;;;;;;;6.15;4.47;;;;;;;15.36;95.32;101087.13;6245555;22;20065;-83
2023/06/10 06:58:03;;;;;;;9.50;5.03;;;;;;;15.41;94.41;101087.03;6272758;22;20022;-78
2023/06/10 07:00:30;;;;;;;12.82;5.80;;;;;;;15.38;94.61;101085.31;6245804;22;20020;-78
2023/06/10 07:02:57;;;;;;;10.88;4.22;;;;;;;15.46;94.40;101090.44;6248080;22;20020;-78
2023/06/10 07:05:26;;;;;;;10.40;4.55;;;;;;;15.51;93.73;101088.56;6248107;22;20016;-82
2023/06/10 07:07:55;;;;;;;11.68;4.97;;;;;;;15.55;93.54;101091.09;6247868;22;20020;-77
2023/06/10 07:10:23;;;;;;;7.32;4.43;;;;;;;15.66;93.11;101092.63;6271653;22;20477;-80
2023/06/10 07:12:50;;;;;;;7.45;4.68;;;;;;;15.79;92.10;101091.44;6244660;22;20020;-77
2023/06/10 07:15:16;;;;;;;8.30;5.05;;;;;;;15.80;91.94;101098.44;6270639;22;20023;-82
2023/06/10 07:17:43;;;;;;;7.32;5.15;;;;;;;15.92;91.61;101097.31;6243306;22;20024;-84
2023/06/10 07:20:10;;;;;;;6.13;4.35;;;;;;;16.07;90.72;101100.50;6243108;22;20076;-84
2023/06/10 07:22:38;;;;;;;7.57;4.93;;;;;;;16.32;90.07;101106.91;6216399;22;20057;-82
2023/06/10 07:25:05;;;;;;;6.93;4.63;;;;;;;16.71;88.40;101108.50;6218959;22;20020;-78
2023/06/10 07:27:32;;;;;;;7.25;5.15;;;;;;;17.27;85.19;101102.53;6243793;22;20102;-79
2023/06/10 07:30:00;;;;;;;10.18;5.45;;;;;;;17.82;83.85;101110.56;6243559;22;20015;-79
2023/06/10 07:32:27;;;;;;;6.72;4.13;;;;;;;18.31;81.04;101105.47;6216777;22;20046;-79
2023/06/10 07:34:53;;;;;;;5.65;4.40;;;;;;;18.80;77.91;101109.97;6244535;22;20028;-84
2023/06/10 07:37:20;;;;;;;6.72;4.32;;;;;;;19.34;75.38;101103.53;6244406;22;20435;-78
2023/06/10 07:39:46;;;;;;;5.88;3.30;;;;;;;20.04;75.44;101103.50;6244415;22;20016;-86
2023/06/10 07:42:13;;;;;;;7.50;3.72;;;;;;;20.77;72.75;101105.75;6238012;22;20008;-80
2023/06/10 07:44:40;;;;;;;5.75;3.97;;;;;;;21.37;69.48;101102.13;6220895;22;20078;-79
2023/06/10 07:47:07;;;;;;;5.80;3.88;;;;;;;21.68;66.21;101103.38;6244786;22;20012;-80
2023/06/10 07:49:33;;;;;;;6.93;3.53;;;;;;;21.61;66.93;101102.78;6239884;22;20049;-91
2023/06/10 07:51:59;;;;;;;7.07;4.47;;;;;;;21.84;65.74;101095.47;6218778;22;20019;-82
2023/06/10 07:54:26;;;;;;;8.70;3.75;;;;;;;22.21;65.48;101098.97;6244793;22;20019;-78
2023/06/10 07:56:53;;;;;;;5.18;4.03;;;;;;;22.39;64.04;101090.06;6245072;22;20019;-80
2023/06/10 07:59:19;;;;;;;7.20;4.50;;;;;;;22.62;62.13;101090.69;6215277;22;20024;-85
2023/06/10 08:01:46;;;;;;;5.78;5.05;;;;;;;22.69;61.75;101096.56;6210682;22;20023;-81
2023/06/10 08:04:12;;;;;;;4.07;3.70;;;;;;;23.15;60.97;101096.75;6238577;22;20026;-84
2023/06/10 08:06:39;;;;;;;5.32;3.83;;;;;;;23.65;59.25;101094.91;6243239;22;20011;-78
2023/06/10 08:09:06;;;;;;;5.47;4.20;;;;;;;24.17;56.20;101093.72;6245595;22;20020;-83
2023/06/10 08:11:33;;;;;;;5.43;4.38;;;;;;;24.42;54.86;101101.13;6244554;22;20022;-81
2023/06/10 08:13:59;;;;;;;7.78;4.25;;;;;;;24.58;53.73;101089.47;6220040;22;20024;-85
2023/06/10 08:16:26;;;;;;;6.10;3.90;;;;;;;25.22;52.29;101094.47;6246292;22;20066;-79
2023/06/10 08:18:52;;;;;;;8.35;4.50;;;;;;;25.50;49.25;101090.91;6245648;22;20020;-87
2023/06/10 08:21:19;;;;;;;6.85;4.28;;;;;;;25.61;49.33;101086.69;6246189;22;20030;-86
2023/06/10 08:23:46;;;;;;;7.80;4.88;;;;;;;25.34;48.07;101096.34;6245872;22;20019;-78
2023/06/10 08:26:13;;;;;;;10.85;5.90;;;;;;;25.08;48.58;101093.56;6244416;22;20019;-81
2023/06/10 08:28:39;;;;;;;5.15;3.67;;;;;;;26.11;45.97;101085.13;6245276;22;20099;-81
2023/06/10 08:31:05;;;;;;;7.30;4.00;;;;;;;25.95;45.88;101101.38;6245209;22;20012;-82
2023/06/10 08:33:32;;;;;;;7.00;4.07;;;;;;;26.35;45.33;101090.66;6245722;22;20379;-80
2023/06/10 08:35:59;;;;;;;4.90;3.88;;;;;;;26.69;43.67;101096.38;6244587;22;20336;-79
2023/06/10 08:38:25;;;;;;;7.07;4.97;;;;;;;27.03;43.00;101085.94;6245106;22;20107;-79
2023/06/10 08:40:57;;;;;;;7.40;5.00;;;;;;;27.48;41.89;101089.94;6217470;22;20020;-84
2023/06/10 08:43:34;;;;;;;4.50;3.88;;;;;;;27.37;41.43;101091.56;6243137;22;20026;-82
2023/06/10 08:46:02;;;;;;;6.45;4.35;;;;;;;28.18;40.91;101091.88;6240442;22;20475;-84
2023/06/10 08:48:36;;;;;;;6.90;3.85;;;;;;;29.41;37.83;101082.31;6247319;22;20020;-83
2023/06/10 08:51:06;;;;;;;5.85;3.95;;;;;;;29.84;36.66;101073.34;6244789;22;20019;-80
2023/06/10 08:53:37;;;;;;;5.25;3.67;;;;;;;29.20;36.73;101074.97;6245784;22;20038;-81
2023/06/10 08:56:06;;;;;;;4.78;3.95;;;;;;;29.42;37.31;101068.69;6217826;22;20028;-82
2023/06/10 08:58:40;;;;;;;4.53;3.60;;;;;;;29.52;36.16;101076.91;6244823;22;20046;-79
2023/06/10 09:01:06;;;;;;;5.65;3.80;;;;;;;29.09;37.07;101075.84;6245737;22;20024;-83
2023/06/10 09:03:34;;;;;;;5.05;3.92;;;;;;;29.74;35.88;101075.97;6245052;22;20012;-79
2023/06/10 09:06:03;;;;;;;6.32;3.38;;;;;;;30.09;34.12;101076.69;6245082;22;20054;-80
2023/06/10 09:08:29;;;;;;;4.85;3.17;;;;;;;29.96;35.38;101077.75;6245060;22;20015;-81
2023/06/10 09:10:56;;;;;;;3.60;3.30;;;;;;;30.18;33.52;101073.19;6218572;22;20030;-83
2023/06/10 09:13:22;;;;;;;7.97;3.53;;;;;;;30.32;34.25;101067.47;6244781;22;20016;-87
2023/06/10 09:15:51;;;;;;;4.20;3.40;;;;;;;30.59;33.66;101065.25;6244800;22;20020;-82
2023/06/10 09:18:17;;;;;;;4.63;3.28;;;;;;;30.59;33.62;101068.78;6218162;22;20016;-79
2023/06/10 09:20:44;;;;;;;5.40;3.33;;;;;;;31.08;32.08;101065.44;6245112;22;20020;-79
2023/06/10 09:23:11;;;;;;;5.97;4.05;;;;;;;30.89;33.22;101066.22;6241845;22;20019;-84
2023/06/10 09:25:39;;;;;;;4.10;3.42;;;;;;;31.85;31.29;101063.91;6246297;22;20483;-87
2023/06/10 09:28:15;;;;;;;6.90;3.63;;;;;;;32.04;30.99;101062.16;6222213;22;20023;-83
2023/06/10 09:30:41;;;;;;;5.75;3.75;;;;;;;32.09;31.06;101063.44;6248894;22;20047;-82
2023/06/10 09:33:16;;;;;;;5.47;3.35;;;;;;;32.51;30.41;101064.94;6247841;22;20099;-81
2023/06/10 09:35:49;;;;;;;3.70;3.33;;;;;;;32.98;29.83;101062.22;6245552;22;20019;-83
2023/06/10 09:38:21;;;;;;;4.63;2.97;;;;;;;32.70;29.64;101058.59;6250038;22;20731;-86
2023/06/10 09:40:55;;;;;;;;;;;;;;;32.15;28.63;101061.97;6244404;22;20095;-84
2023/06/10 09:43:22;;;;;;;6.50;3.90;;;;;;;31.79;29.79;101067.16;6245367;22;19915;-82
2023/06/10 09:45:52;;;;;;;4.38;3.67;;;;;;;32.47;29.31;101058.94;6245235;22;20023;-81
2023/06/10 09:48:19;;;;;;;3.30;3.00;;;;;;;33.25;28.36;101060.47;6220910;22;20458;-83
2023/06/10 09:50:47;;;;;;;4.22;3.58;;;;;;;33.58;27.83;101057.28;6222406;22;20023;-82
2023/06/10 09:53:14;;;;;;;5.93;3.33;;;;;;;34.19;26.98;101054.75;6219774;22;20370;-80
2023/06/10 09:55:42;;;;;;;3.92;3.05;;;;;;;34.99;26.24;101054.53;6245705;22;20134;-81
2023/06/10 09:58:09;;;;;;;3.17;2.92;;;;;;;34.82;26.67;101050.03;6242416;22;20020;-82
2023/06/10 10:00:38;;;;;;;3.90;3.55;;;;;;;34.77;26.33;101055.94;6243299;22;20090;-84
2023/06/10 10:03:06;;;;;;;4.20;3.22;;;;;;;35.19;26.49;101057.84;6217511;22;20023;-82
2023/06/10 10:05:33;;;;;;;4.40;3.53;;;;;;;34.51;26.98;101051.44;6243007;22;20019;-81
2023/06/10 10:07:59;;;;;;;4.80;3.35;;;;;;;35.26;25.90;101049.84;6242864;22;20083;-83
2023/06/10 10:10:26;;;;;;;6.53;4.53;;;;;;;35.48;26.09;101045.69;6243226;22;20015;-84
2023/06/10 10:12:56;;;;;;;3.65;2.78;;;;;;;36.22;24.90;101053.03;6251730;22;20112;-81
2023/06/10 10:15:26;;;;;;;5.28;4.30;;;;;;;36.91;25.12;101045.16;6213581;23;20020;-80
2023/06/10 10:18:03;;;;;;;4.13;3.83;;;;;;;36.91;24.16;101050.63;6214884;23;20040;-81
2023/06/10 10:20:34;;;;;;;3.33;3.08;;;;;;;36.65;24.51;101056.34;6212927;23;20016;-80
2023/06/10 10:23:04;;;;;;;4.33;3.73;;;;;;;36.53;24.55;101063.19;6213422;23;20070;-91
2023/06/10 10:25:39;;;;;;;3.95;3.58;;;;;;;36.25;25.70;101048.06;6213175;23;20020;-80
2023/06/10 10:28:11;;;;;;;3.85;3.55;;;;;;;36.55;24.95;101052.97;6210965;23;20634;-82
2023/06/10 10:30:44;;;;;;;4.68;3.75;;;;;;;37.30;24.19;101050.75;6208453;23;20016;-82
2023/06/10 10:33:20;;;;;;;5.80;3.85;;;;;;;37.35;23.91;101056.53;6214234;23;20404;-81
2023/06/10 10:35:47;;;;;;;4.15;3.40;;;;;;;37.66;23.60;101051.03;6212404;23;20024;-82
2023/06/10 10:38:15;;;;;;;3.63;3.42;;;;;;;38.05;23.13;101050.03;6228873;22;20070;-84
2023/06/10 10:40:43;;;;;;;4.57;3.30;;;;;;;38.12;23.09;101049.28;6182902;23;20012;-81
2023/06/10 10:43:10;;;;;;;4.88;3.28;;;;;;;38.14;23.14;101053.53;6209082;23;20457;-83
2023/06/10 10:45:37;;;;;;;4.47;3.38;;;;;;;38.53;22.99;101044.25;6184551;23;20074;-86
2023/06/10 10:48:11;;;;;;;5.60;3.53;;;;;;;39.50;21.85;101046.91;6209555;23;20465;-84
2023/06/10 10:50:39;;;;;;;4.53;3.67;;;;;;;39.16;22.03;101052.00;6208567;23;20058;-80
2023/06/10 10:53:07;;;;;;;4.30;3.08;;;;;;;37.80;23.88;101046.69;6208848;23;20024;-91
2023/06/10 10:55:33;;;;;;;3.80;3.42;;;;;;;38.55;23.34;101047.66;6210656;23;20543;-84
2023/06/10 10:58:09;;;;;;;4.18;3.78;;;;;;;38.92;22.74;101039.53;6209841;23;20477;-81
2023/06/10 11:00:45;;;;;;;4.18;3.78;;;;;;;38.69;22.87;101042.34;6209445;23;20511;-89
2023/06/10 11:03:18;;;;;;;4.88;3.45;;;;;;;38.66;23.34;101040.84;6209554;23;20521;-87
2023/06/10 11:05:48;;;;;;;6.53;4.20;;;;;;;38.90;23.31;101041.59;6186245;23;20458;-83
2023/06/10 11:08:35;;;;;;;6.25;3.78;;;;;;;37.96;23.92;101040.22;6236279;23;20038;-89
2023/06/10 11:11:02;;;;;;;4.10;3.75;;;;;;;38.19;23.56;101033.84;6217673;23;20107;-81
2023/06/10 11:13:29;;;;;;;3.88;3.40;;;;;;;38.56;23.39;101045.75;6232409;23;20154;-86
2023/06/10 11:15:59;;;;;;;5.65;3.38;;;;;;;38.65;23.26;101035.56;6210943;23;20016;-88
2023/06/10 11:18:40;;;;;;;4.80;3.65;;;;;;;39.02;23.09;101034.59;6187127;23;20020;-84
2023/06/10 11:21:06;;;;;;;4.70;3.47;;;;;;;40.00;22.20;101033.22;6211531;23;20012;-91
2023/06/10 11:23:34;;;;;;;6.00;3.72;;;;;;;39.77;22.80;101031.59;6211298;23;20466;-91
2023/06/10 11:26:26;;;;;;;5.03;3.78;;;;;;;39.82;22.77;101028.25;6212679;23;20091;-86